CZFA

Faro Airport

Faro, Yukon Territory, Canada
METAR CZFA 172300Z 15011KT 30SM FEW045 BKN060 BKN120 M08/M12 A2915 RMK CU2SC3AC1 CLIMAT -7.8/-8.7/0.0 LAST STFD OBS/NXT 181500Z SLP923
Observed Flight Rules
Dec-17 @ 23:00 UTC (14 hours ago) Visual Flight Rules
Wind Visibility Clouds
150° at 11 knots 30 miles
  • Few at 4,500' AGL
  • Broken at 6,000' AGL
  • Broken at 12,000' AGL
Temperatures Readings
Current -8°C / 18°F
Dewpoint -12°C / 10°F
Humidity 73%
Altimeter 29.15" Hg
Pressure 992.3 hPa
Elevation 717
METAR CZFA 172300Z 15011KT 30SM FEW045 BKN060 BKN120 M08/M12 A2915 RMK CU2SC3AC1 CLIMAT -7.8/-8.7/0.0 LAST STFD OBS/NXT 181500Z SLP923
Observed Flight Rules
Dec-17 @ 23:00 UTC
(14 hours ago)
VFR
Wind Visibility
150° at 11 knots 30 miles
Clouds
  • Few at 4,500' AGL
  • Broken at 6,000' AGL
  • Broken at 12,000' AGL
Temperature Dewpoint
-8°C / 18°F -12°C / 10°F
Humidity Altimeter Pressure
73% 29.15" Hg 992.3 hPa